Time;durP1;ratioP1;P1;durP2;ratioP2;P2;SDS_P1;SDS_P2;PMS_P1;PMS_P2;Temp;Humidity;BMP_temperature;BMP_pressure;BME280_temperature;BME280_humidity;BME280_pressure;Samples;Min_cycle;Max_cycle;Signal;HPM_P1;HPM_P2
2024/01/30 00:01:13;;;;;;;7.20;5.53;;;8.70;99.90;;;;;;7339758;32;20135;-56
2024/01/30 00:05:15;;;;;;;9.95;6.10;;;8.70;99.90;;;;;;7341777;32;20240;-56
2024/01/30 00:09:17;;;;;;;11.15;6.70;;;8.70;99.90;;;;;;7335855;32;20124;-58
2024/01/30 00:13:19;;;;;;;10.07;6.03;;;8.70;99.90;;;;;;7346545;32;20135;-57
2024/01/30 00:17:21;;;;;;;9.90;5.90;;;8.70;99.90;;;;;;7339049;32;20124;-57
2024/01/30 00:21:23;;;;;;;10.10;6.07;;;8.80;99.90;;;;;;7345160;32;20175;-56
2024/01/30 00:25:25;;;;;;;10.80;6.28;;;8.70;99.90;;;;;;7348327;32;20148;-56
2024/01/30 00:29:30;;;;;;;14.50;6.57;;;8.70;99.90;;;;;;7339327;32;20225;-58
2024/01/30 00:33:32;;;;;;;8.80;6.00;;;8.70;99.90;;;;;;7346116;32;20356;-57
2024/01/30 00:37:34;;;;;;;9.50;5.93;;;8.70;99.90;;;;;;7343629;32;20508;-56
2024/01/30 00:41:35;;;;;;;9.38;6.07;;;8.60;99.90;;;;;;7352262;32;20123;-56
2024/01/30 00:45:37;;;;;;;10.45;6.50;;;8.50;99.90;;;;;;7343274;32;20104;-58
2024/01/30 00:49:39;;;;;;;10.45;6.25;;;8.50;99.90;;;;;;7344254;32;20521;-56
2024/01/30 00:53:41;;;;;;;9.85;6.97;;;8.50;99.90;;;;;;7346955;32;20178;-56
2024/01/30 00:57:43;;;;;;;8.70;6.05;;;8.50;99.90;;;;;;7342098;32;20122;-56
2024/01/30 01:01:47;;;;;;;11.85;6.85;;;8.40;99.90;;;;;;7346883;32;20099;-58
2024/01/30 01:05:48;;;;;;;12.23;6.35;;;8.40;99.90;;;;;;7342704;32;20092;-57
2024/01/30 01:09:50;;;;;;;11.00;6.60;;;8.30;99.90;;;;;;7340974;32;20149;-56
2024/01/30 01:13:52;;;;;;;10.35;6.25;;;8.20;99.90;;;;;;7349557;32;20190;-56
2024/01/30 01:17:54;;;;;;;11.15;6.35;;;8.20;99.90;;;;;;7343139;32;20143;-56
2024/01/30 01:21:56;;;;;;;14.85;7.35;;;8.20;99.90;;;;;;7335491;32;20123;-57
2024/01/30 01:26:00;;;;;;;10.23;7.05;;;8.20;99.90;;;;;;7348334;32;20189;-58
2024/01/30 01:30:05;;;;;;;11.98;6.62;;;8.10;99.90;;;;;;7342978;32;20198;-57
2024/01/30 01:34:07;;;;;;;11.32;7.10;;;8.00;99.90;;;;;;7340114;32;20099;-58
2024/01/30 01:38:09;;;;;;;12.68;7.20;;;8.10;99.90;;;;;;7349631;32;20262;-58
2024/01/30 01:42:11;;;;;;;12.93;7.32;;;8.20;99.90;;;;;;7344823;32;20094;-57
2024/01/30 01:46:12;;;;;;;11.85;6.85;;;8.20;99.90;;;;;;7337579;32;20191;-56
2024/01/30 01:50:19;;;;;;;12.37;6.82;;;8.20;99.90;;;;;;7348410;32;20259;-57
2024/01/30 01:54:21;;;;;;;9.50;6.30;;;8.10;99.90;;;;;;7337604;32;20212;-56
2024/01/30 01:58:28;;;;;;;11.40;6.80;;;8.00;99.90;;;;;;7345073;32;20213;-56
2024/01/30 02:02:30;;;;;;;;;;;8.00;99.90;;;;;;7344176;32;20177;-57
2024/01/30 02:06:33;;;;;;;11.68;6.82;;;8.00;99.90;;;;;;7342692;32;20189;-57
2024/01/30 02:10:35;;;;;;;13.95;7.40;;;8.10;99.90;;;;;;7341471;32;20099;-56
2024/01/30 02:14:50;;;;;;;10.80;6.87;;;8.10;99.90;;;;;;7342007;32;20558;-56
2024/01/30 02:18:52;;;;;;;11.82;7.07;;;8.00;99.90;;;;;;7334363;32;20184;-56
2024/01/30 02:22:55;;;;;;;11.15;6.72;;;8.10;99.90;;;;;;7342954;32;20534;-57
2024/01/30 02:26:57;;;;;;;10.50;6.55;;;8.10;99.90;;;;;;7344604;32;20115;-60
2024/01/30 02:30:59;;;;;;;12.95;6.97;;;8.10;99.90;;;;;;7332204;32;20145;-56
2024/01/30 02:35:00;;;;;;;8.95;6.35;;;8.10;99.90;;;;;;7347570;32;20135;-56
2024/01/30 02:39:03;;;;;;;12.32;7.03;;;8.20;99.90;;;;;;7344914;32;20189;-57
2024/01/30 02:43:05;;;;;;;10.63;6.35;;;8.20;99.90;;;;;;7341842;32;20151;-57
2024/01/30 02:47:07;;;;;;;9.98;6.45;;;8.20;99.90;;;;;;7343158;32;20237;-57
2024/01/30 02:51:08;;;;;;;9.88;6.40;;;8.10;99.90;;;;;;7342486;32;20148;-56
2024/01/30 02:55:10;;;;;;;15.50;7.37;;;8.00;99.90;;;;;;7341183;32;20114;-56
2024/01/30 02:59:12;;;;;;;12.07;6.70;;;8.00;99.90;;;;;;7350935;32;20170;-56
2024/01/30 03:03:14;;;;;;;9.63;6.50;;;8.10;99.90;;;;;;7342176;32;20103;-56
2024/01/30 03:07:16;;;;;;;8.18;6.00;;;8.20;99.90;;;;;;7339142;32;20235;-55
2024/01/30 03:11:18;;;;;;;10.02;6.60;;;8.20;99.90;;;;;;7342428;32;20114;-57
2024/01/30 03:15:20;;;;;;;11.18;6.53;;;8.20;99.90;;;;;;7338504;32;20556;-58
2024/01/30 03:19:21;;;;;;;13.10;6.85;;;8.20;99.90;;;;;;7338779;32;20927;-56
2024/01/30 03:23:24;;;;;;;9.68;7.10;;;8.20;99.90;;;;;;7343348;32;20131;-56
2024/01/30 03:27:25;;;;;;;10.00;5.78;;;8.30;99.90;;;;;;7337594;32;20514;-57
2024/01/30 03:31:27;;;;;;;10.98;6.47;;;8.20;99.90;;;;;;7342549;32;21923;-57
2024/01/30 03:35:29;;;;;;;11.07;6.05;;;8.20;99.90;;;;;;7342789;32;20130;-57
2024/01/30 03:39:31;;;;;;;13.00;6.43;;;8.10;99.90;;;;;;7344934;32;20114;-56
2024/01/30 03:43:32;;;;;;;11.05;6.55;;;8.20;99.90;;;;;;7345315;32;20641;-58
2024/01/30 03:47:34;;;;;;;11.40;6.12;;;8.30;99.90;;;;;;7344361;32;20143;-57
2024/01/30 03:51:36;;;;;;;9.82;5.95;;;8.30;99.90;;;;;;7340533;32;20104;-57
2024/01/30 03:55:38;;;;;;;10.60;6.20;;;8.30;99.90;;;;;;7346425;32;20183;-57
2024/01/30 03:59:45;;;;;;;9.93;5.87;;;8.30;99.90;;;;;;7342589;32;20111;-57
2024/01/30 04:03:46;;;;;;;8.65;6.37;;;8.30;99.90;;;;;;7342082;32;20691;-57
2024/01/30 04:07:48;;;;;;;9.75;6.10;;;8.30;99.90;;;;;;7345506;32;20126;-57
2024/01/30 04:11:50;;;;;;;10.00;5.97;;;8.20;99.90;;;;;;7334875;32;20886;-57
2024/01/30 04:15:52;;;;;;;11.38;5.93;;;8.30;99.90;;;;;;7335788;32;20136;-58
2024/01/30 04:19:53;;;;;;;9.73;6.25;;;8.30;99.90;;;;;;7334996;32;20115;-57
2024/01/30 04:23:55;;;;;;;10.35;5.85;;;8.40;99.90;;;;;;7333635;32;20127;-56
2024/01/30 04:27:57;;;;;;;9.68;5.50;;;8.30;99.90;;;;;;7345368;32;20144;-57
2024/01/30 04:31:59;;;;;;;7.95;5.50;;;8.20;99.90;;;;;;7346373;32;20125;-57
2024/01/30 04:36:01;;;;;;;11.27;5.62;;;8.20;99.90;;;;;;7338432;32;20252;-57
2024/01/30 04:40:03;;;;;;;9.52;5.60;;;8.20;99.90;;;;;;7350817;32;20182;-57
2024/01/30 04:44:05;;;;;;;10.55;6.12;;;8.20;99.90;;;;;;7349734;32;20099;-56
2024/01/30 04:48:07;;;;;;;8.95;5.60;;;8.30;99.90;;;;;;7341531;32;20111;-56
2024/01/30 04:52:09;;;;;;;9.85;5.62;;;8.30;99.90;;;;;;7343912;32;20130;-57
2024/01/30 04:56:11;;;;;;;10.30;5.87;;;8.40;99.90;;;;;;7346602;32;20635;-57
2024/01/30 05:00:12;;;;;;;7.53;5.68;;;8.50;99.90;;;;;;7335361;32;20131;-57
2024/01/30 05:04:14;;;;;;;9.43;5.65;;;8.30;99.90;;;;;;7336283;32;20119;-57
2024/01/30 05:08:18;;;;;;;11.52;6.00;;;8.40;99.90;;;;;;7345353;32;20175;-57
2024/01/30 05:12:20;;;;;;;9.98;5.62;;;8.40;99.90;;;;;;7337328;32;20104;-59
2024/01/30 05:16:22;;;;;;;8.95;5.95;;;8.40;99.90;;;;;;7344628;32;20181;-57
2024/01/30 05:20:27;;;;;;;9.95;5.53;;;8.50;99.90;;;;;;7345632;32;20762;-57
2024/01/30 05:24:29;;;;;;;8.55;5.50;;;8.40;99.90;;;;;;7340464;32;20591;-58
2024/01/30 05:28:31;;;;;;;10.48;6.25;;;8.40;99.90;;;;;;7352958;32;20163;-57
2024/01/30 05:32:33;;;;;;;9.98;6.25;;;8.40;99.90;;;;;;7338385;32;20205;-57
2024/01/30 05:36:35;;;;;;;9.63;6.50;;;8.30;99.90;;;;;;7342941;32;20131;-56
2024/01/30 05:40:37;;;;;;;8.90;5.32;;;8.30;99.90;;;;;;7343418;32;20655;-57
2024/01/30 05:44:38;;;;;;;11.07;5.80;;;8.30;99.90;;;;;;7340638;32;20244;-57
2024/01/30 05:48:40;;;;;;;9.75;5.68;;;8.30;99.90;;;;;;7336554;32;20592;-56
2024/01/30 05:52:42;;;;;;;8.63;5.55;;;8.20;99.90;;;;;;7343458;32;20521;-57
2024/01/30 05:56:44;;;;;;;12.63;5.87;;;8.20;99.90;;;;;;7335933;32;20585;-57
2024/01/30 06:00:45;;;;;;;9.73;5.93;;;8.20;99.90;;;;;;7346120;32;20150;-56
2024/01/30 06:04:47;;;;;;;8.27;5.47;;;8.20;99.90;;;;;;7344800;32;20143;-58
2024/01/30 06:08:49;;;;;;;10.07;5.30;;;8.20;99.90;;;;;;7346366;32;20174;-57
2024/01/30 06:12:51;;;;;;;9.73;6.03;;;8.20;99.90;;;;;;7346414;32;20183;-56
2024/01/30 06:16:52;;;;;;;11.88;6.30;;;8.20;99.90;;;;;;7342746;32;20187;-58
2024/01/30 06:20:54;;;;;;;10.52;5.93;;;8.10;99.90;;;;;;7345996;32;20644;-57
2024/01/30 06:24:56;;;;;;;8.60;5.68;;;8.20;99.90;;;;;;7338421;32;20178;-56
2024/01/30 06:28:57;;;;;;;7.07;5.35;;;8.20;99.90;;;;;;7339435;32;20125;-56
2024/01/30 06:32:59;;;;;;;13.90;6.47;;;8.20;99.90;;;;;;7344430;32;20290;-57
2024/01/30 06:37:01;;;;;;;11.30;6.07;;;8.30;99.90;;;;;;7343681;32;20188;-57
2024/01/30 06:41:03;;;;;;;10.20;5.65;;;8.30;99.90;;;;;;7346114;32;20138;-56
2024/01/30 06:45:05;;;;;;;9.02;5.65;;;8.30;99.90;;;;;;7335516;32;20617;-57
2024/01/30 06:49:07;;;;;;;8.68;6.03;;;8.30;99.90;;;;;;7345053;32;20561;-57
2024/01/30 06:53:09;;;;;;;7.47;5.55;;;8.30;99.90;;;;;;7339558;32;20153;-57
2024/01/30 06:57:11;;;;;;;11.23;5.85;;;8.40;99.90;;;;;;7347199;32;20168;-57
2024/01/30 07:01:13;;;;;;;7.57;5.20;;;8.40;99.90;;;;;;7336969;32;20658;-56
2024/01/30 07:05:17;;;;;;;11.93;5.70;;;8.40;99.90;;;;;;7348985;32;20118;-56
2024/01/30 07:09:18;;;;;;;8.38;5.57;;;8.40;99.90;;;;;;7341805;32;20103;-56
2024/01/30 07:13:20;;;;;;;10.35;5.60;;;8.40;99.90;;;;;;7349086;32;20147;-56
2024/01/30 07:17:22;;;;;;;9.15;5.55;;;8.40;99.90;;;;;;7339266;32;20114;-58
2024/01/30 07:21:28;;;;;;;8.73;5.18;;;8.40;99.90;;;;;;7336176;32;20613;-58
2024/01/30 07:25:29;;;;;;;8.40;5.65;;;8.40;99.90;;;;;;7339921;32;20194;-58
2024/01/30 07:29:31;;;;;;;10.32;5.50;;;8.40;99.90;;;;;;7340359;32;20164;-57
2024/01/30 07:33:33;;;;;;;9.98;5.60;;;8.50;99.90;;;;;;7338267;32;20249;-59
2024/01/30 07:37:35;;;;;;;9.65;5.82;;;8.50;99.90;;;;;;7340254;32;20107;-57
2024/01/30 07:41:37;;;;;;;9.85;5.60;;;8.60;99.90;;;;;;7343563;32;20179;-58
2024/01/30 07:45:39;;;;;;;10.13;5.53;;;8.60;99.90;;;;;;7347328;32;20172;-58
2024/01/30 07:49:41;;;;;;;8.93;5.30;;;8.60;99.90;;;;;;7344238;32;20217;-57
2024/01/30 07:53:43;;;;;;;8.90;5.60;;;8.70;99.90;;;;;;7344072;32;20157;-58
2024/01/30 07:57:45;;;;;;;9.07;4.85;;;8.60;99.90;;;;;;7346586;32;20266;-58
2024/01/30 08:02:02;;;;;;;9.15;5.60;;;8.70;99.90;;;;;;7345066;32;20430;-57
2024/01/30 08:06:04;;;;;;;;;;;8.70;99.90;;;;;;7348214;32;20210;-58
2024/01/30 08:10:06;;;;;;;9.15;5.20;;;8.80;99.90;;;;;;7342951;32;20006;-59
2024/01/30 08:14:08;;;;;;;12.05;5.80;;;8.80;99.90;;;;;;7346419;32;20209;-58
2024/01/30 08:18:10;;;;;;;11.07;5.60;;;8.80;99.90;;;;;;7352522;32;20143;-59
2024/01/30 08:22:12;;;;;;;8.35;4.90;;;8.80;99.90;;;;;;7349033;32;20148;-58
2024/01/30 08:26:14;;;;;;;10.52;5.30;;;8.80;99.90;;;;;;7345421;32;20201;-58
2024/01/30 08:30:16;;;;;;;10.43;5.70;;;8.90;99.90;;;;;;7353652;32;20187;-57
2024/01/30 08:34:17;;;;;;;9.52;6.30;;;9.00;99.90;;;;;;7343993;32;20103;-58
2024/01/30 08:38:19;;;;;;;9.30;5.55;;;9.00;99.90;;;;;;7348411;32;20123;-57
2024/01/30 08:42:25;;;;;;;9.25;5.55;;;9.00;99.90;;;;;;7341112;32;20115;-58
2024/01/30 08:46:26;;;;;;;9.10;5.65;;;9.10;99.90;;;;;;7348589;32;20099;-59
2024/01/30 08:50:29;;;;;;;10.07;5.87;;;9.10;99.90;;;;;;7351854;32;20138;-57
2024/01/30 08:54:34;;;;;;;8.30;5.53;;;9.20;99.90;;;;;;7341155;32;20152;-58
2024/01/30 08:58:35;;;;;;;9.50;5.20;;;9.20;99.90;;;;;;7349512;32;20222;-58
2024/01/30 09:02:37;;;;;;;12.45;5.75;;;9.30;99.90;;;;;;7339124;32;20816;-58
2024/01/30 09:06:39;;;;;;;8.15;5.93;;;9.30;99.90;;;;;;7343536;32;20190;-58
2024/01/30 09:10:41;;;;;;;10.85;5.32;;;9.30;99.90;;;;;;7346924;32;20163;-58
2024/01/30 09:14:43;;;;;;;8.13;5.32;;;9.40;99.90;;;;;;7337306;32;20435;-57
2024/01/30 09:18:44;;;;;;;9.68;5.87;;;9.40;99.90;;;;;;7345193;32;20791;-58
2024/01/30 09:22:46;;;;;;;8.30;5.85;;;9.40;99.90;;;;;;7342320;32;20154;-59
2024/01/30 09:26:48;;;;;;;8.02;5.40;;;9.50;99.90;;;;;;7340158;32;20628;-59
2024/01/30 09:30:50;;;;;;;11.70;5.95;;;9.60;99.90;;;;;;7345832;32;20509;-59
2024/01/30 09:34:51;;;;;;;10.73;6.12;;;9.60;99.90;;;;;;7342027;32;20137;-60
2024/01/30 09:38:55;;;;;;;9.65;5.95;;;9.70;99.90;;;;;;7340953;32;20197;-58
2024/01/30 09:42:59;;;;;;;10.68;6.15;;;9.90;99.90;;;;;;7342860;32;20168;-58
2024/01/30 09:47:03;;;;;;;8.60;5.40;;;10.00;99.90;;;;;;7335896;32;20107;-57
2024/01/30 09:51:06;;;;;;;8.13;5.55;;;10.20;99.90;;;;;;7348982;32;20186;-57
2024/01/30 09:55:08;;;;;;;10.27;6.18;;;10.20;99.90;;;;;;7332692;32;20171;-57
2024/01/30 09:59:10;;;;;;;6.97;5.12;;;10.20;99.90;;;;;;7340356;32;20096;-58
2024/01/30 10:03:14;;;;;;;8.63;5.53;;;10.30;99.90;;;;;;7344367;32;20150;-59
2024/01/30 10:07:17;;;;;;;10.15;6.22;;;10.60;99.90;;;;;;7344241;32;20121;-59
2024/01/30 10:11:21;;;;;;;10.73;5.80;;;10.60;99.90;;;;;;7335406;32;20643;-58
2024/01/30 10:15:23;;;;;;;9.85;5.40;;;10.80;99.90;;;;;;7345303;32;20157;-58
2024/01/30 10:19:25;;;;;;;11.50;5.85;;;10.80;99.90;;;;;;7349534;32;20189;-58
2024/01/30 10:23:28;;;;;;;9.43;5.40;;;10.70;99.90;;;;;;7344994;32;20111;-58
2024/01/30 10:27:36;;;;;;;10.77;5.22;;;10.70;99.90;;;;;;7346407;32;20252;-58
2024/01/30 10:31:38;;;;;;;12.35;6.30;;;10.70;99.90;;;;;;7342951;32;20126;-57
2024/01/30 10:35:40;;;;;;;10.27;5.30;;;10.80;99.90;;;;;;7343359;32;20176;-58
2024/01/30 10:39:44;;;;;;;11.63;6.47;;;11.00;99.90;;;;;;7337121;32;20525;-59
2024/01/30 10:43:56;;;;;;;11.05;5.95;;;11.00;99.90;;;;;;7343453;32;20195;-58
2024/01/30 10:47:59;;;;;;;10.93;5.90;;;11.00;99.90;;;;;;7341323;32;20103;-58
2024/01/30 10:52:05;;;;;;;11.95;6.10;;;11.00;99.90;;;;;;7345373;32;20134;-59
2024/01/30 10:56:09;;;;;;;10.00;6.25;;;11.00;99.90;;;;;;7334030;32;20127;-59
2024/01/30 11:00:13;;;;;;;10.00;5.87;;;11.30;99.90;;;;;;7342079;32;20239;-59
2024/01/30 11:04:15;;;;;;;9.88;5.80;;;11.40;99.90;;;;;;7334998;32;20592;-59
2024/01/30 11:08:28;;;;;;;13.30;6.50;;;11.60;99.90;;;;;;7345995;32;20230;-58
2024/01/30 11:12:40;;;;;;;13.30;6.45;;;11.70;99.90;;;;;;7345708;32;20438;-59
2024/01/30 11:16:42;;;;;;;11.93;5.72;;;11.60;99.90;;;;;;7339645;32;20167;-58
2024/01/30 11:20:48;;;;;;;10.15;5.50;;;11.70;99.90;;;;;;7341165;32;20142;-59
2024/01/30 11:24:50;;;;;;;11.10;7.05;;;11.70;99.90;;;;;;7337950;32;20577;-58
2024/01/30 11:28:55;;;;;;;10.57;6.32;;;11.80;99.90;;;;;;7343998;32;20242;-59
2024/01/30 11:33:05;;;;;;;13.98;6.60;;;11.80;99.90;;;;;;7336477;32;20131;-58
2024/01/30 11:37:11;;;;;;;14.07;5.87;;;11.80;99.90;;;;;;7348920;32;20121;-61
2024/01/30 11:41:15;;;;;;;9.48;6.22;;;11.80;99.90;;;;;;7335061;32;20121;-59
2024/01/30 11:45:17;;;;;;;10.18;6.03;;;11.80;99.90;;;;;;7352618;32;20111;-58
2024/01/30 11:49:19;;;;;;;9.25;5.57;;;11.80;99.90;;;;;;7349379;32;20111;-57
2024/01/30 11:53:22;;;;;;;12.13;6.25;;;11.70;99.90;;;;;;7343039;32;20135;-57
2024/01/30 11:57:26;;;;;;;11.07;6.35;;;11.60;99.90;;;;;;7342418;32;20204;-58
2024/01/30 12:01:27;;;;;;;12.05;6.37;;;11.60;99.90;;;;;;7348754;32;20168;-58
2024/01/30 12:05:34;;;;;;;12.00;6.13;;;11.60;99.90;;;;;;7350290;32;20100;-57
2024/01/30 12:09:36;;;;;;;10.85;5.72;;;11.70;99.90;;;;;;7344104;32;20194;-57
2024/01/30 12:13:38;;;;;;;13.35;6.05;;;11.70;99.90;;;;;;7349307;32;20613;-57
2024/01/30 12:17:40;;;;;;;11.55;6.10;;;11.60;99.90;;;;;;7347481;32;20112;-58
2024/01/30 12:21:42;;;;;;;12.05;6.22;;;11.70;99.90;;;;;;7345290;32;20228;-56
2024/01/30 12:25:44;;;;;;;14.87;7.40;;;11.80;99.90;;;;;;7340752;32;20240;-56
2024/01/30 12:29:45;;;;;;;11.93;5.15;;;11.80;99.90;;;;;;7345492;32;20623;-58
2024/01/30 12:33:49;;;;;;;11.55;6.25;;;11.80;99.90;;;;;;7345307;32;20105;-59
2024/01/30 12:37:51;;;;;;;11.52;6.10;;;11.80;99.90;;;;;;7350100;32;20244;-57
2024/01/30 12:41:53;;;;;;;10.65;6.22;;;11.70;99.90;;;;;;7345082;32;20123;-57
2024/01/30 12:45:55;;;;;;;9.93;5.55;;;11.70;99.90;;;;;;7340030;32;20180;-57
2024/01/30 12:49:57;;;;;;;11.00;6.05;;;11.70;99.90;;;;;;7348268;32;20131;-58
2024/01/30 12:54:05;;;;;;;13.88;5.30;;;11.60;99.90;;;;;;7347736;32;20458;-57
2024/01/30 12:58:06;;;;;;;11.18;5.85;;;11.60;99.90;;;;;;7347789;32;20104;-57
2024/01/30 13:02:09;;;;;;;15.63;5.55;;;11.60;99.90;;;;;;7342197;32;20525;-57
2024/01/30 13:06:11;;;;;;;13.18;6.28;;;11.60;99.90;;;;;;7345039;32;20134;-57
2024/01/30 13:10:13;;;;;;;13.62;5.43;;;11.60;99.90;;;;;;7348758;32;20107;-57
2024/01/30 13:14:14;;;;;;;14.60;6.70;;;11.70;99.90;;;;;;7344330;32;20585;-57
2024/01/30 13:18:16;;;;;;;9.95;6.22;;;11.70;99.90;;;;;;7349168;32;20157;-58
2024/01/30 13:22:21;;;;;;;12.90;6.05;;;11.70;99.90;;;;;;7347172;32;20111;-58
2024/01/30 13:26:23;;;;;;;12.13;5.57;;;11.70;99.90;;;;;;7344445;32;20103;-59
2024/01/30 13:30:24;;;;;;;10.23;5.60;;;11.70;99.90;;;;;;7345111;32;20584;-58
2024/01/30 13:34:26;;;;;;;12.43;6.03;;;11.80;99.90;;;;;;7342325;32;20128;-58
2024/01/30 13:38:28;;;;;;;11.88;6.00;;;11.80;99.90;;;;;;7344318;32;20845;-59
2024/01/30 13:42:30;;;;;;;12.73;6.53;;;11.80;99.90;;;;;;7340628;32;20157;-59
2024/01/30 13:46:32;;;;;;;15.93;7.15;;;11.80;99.90;;;;;;7344472;32;20149;-58
2024/01/30 13:50:33;;;;;;;11.85;6.32;;;11.80;99.90;;;;;;7344926;32;20115;-58
2024/01/30 13:54:35;;;;;;;11.55;6.18;;;11.90;99.90;;;;;;7342928;32;20127;-58
2024/01/30 13:58:37;;;;;;;13.65;5.90;;;12.00;99.90;;;;;;7344958;32;20218;-58
2024/01/30 14:02:39;;;;;;;15.80;6.75;;;11.90;99.90;;;;;;7345737;32;20194;-59
2024/01/30 14:06:41;;;;;;;12.73;7.35;;;11.80;99.90;;;;;;7345433;32;20130;-58
2024/01/30 14:10:57;;;;;;;14.95;7.10;;;11.80;99.90;;;;;;7350304;32;20096;-58
2024/01/30 14:14:59;;;;;;;10.60;6.35;;;11.80;99.90;;;;;;7345132;32;20164;-59
2024/01/30 14:19:03;;;;;;;11.70;6.10;;;12.00;99.90;;;;;;7343656;32;20103;-58
2024/01/30 14:23:05;;;;;;;14.50;6.68;;;12.30;99.90;;;;;;7340584;32;20198;-57
2024/01/30 14:27:08;;;;;;;13.48;7.37;;;12.30;99.90;;;;;;7341478;32;20213;-58
2024/01/30 14:31:11;;;;;;;12.10;7.10;;;12.30;99.90;;;;;;7344318;32;20163;-59
2024/01/30 14:35:13;;;;;;;10.98;7.20;;;12.40;99.90;;;;;;7346517;32;20131;-58
2024/01/30 14:39:15;;;;;;;12.80;7.25;;;12.30;99.90;;;;;;7343833;32;20206;-58
2024/01/30 14:43:17;;;;;;;15.15;7.97;;;12.20;99.90;;;;;;7342691;32;20124;-58
2024/01/30 14:47:19;;;;;;;16.23;8.18;;;12.10;99.90;;;;;;7338359;32;20130;-60
2024/01/30 14:51:20;;;;;;;10.85;7.05;;;12.00;99.90;;;;;;7342650;32;20184;-58
2024/01/30 14:55:22;;;;;;;12.10;7.45;;;11.90;99.90;;;;;;7340425;32;20115;-59
2024/01/30 14:59:24;;;;;;;11.18;6.40;;;11.90;99.90;;;;;;7337266;32;20123;-59
2024/01/30 15:03:29;;;;;;;19.05;6.90;;;11.80;99.90;;;;;;7344926;32;20168;-62
2024/01/30 15:07:30;;;;;;;12.10;7.22;;;11.90;99.90;;;;;;7346515;32;20172;-62
2024/01/30 15:11:44;;;;;;;9.05;5.07;;;12.00;99.90;;;;;;7340904;32;20474;-58
2024/01/30 15:15:46;;;;;;;10.48;5.50;;;11.70;99.90;;;;;;7342300;32;20190;-58
2024/01/30 15:19:48;;;;;;;13.30;4.80;;;11.70;99.90;;;;;;7344374;32;20513;-60
2024/01/30 15:23:50;;;;;;;7.68;4.53;;;11.60;99.90;;;;;;7349180;32;20535;-59
2024/01/30 15:27:52;;;;;;;12.77;5.37;;;11.60;99.90;;;;;;7340209;32;20183;-58
2024/01/30 15:31:53;;;;;;;9.23;3.87;;;11.50;99.90;;;;;;7341500;32;20208;-57
2024/01/30 15:35:55;;;;;;;5.22;2.75;;;11.40;99.90;;;;;;7342381;32;20210;-58
2024/01/30 15:39:57;;;;;;;8.32;3.17;;;11.20;99.90;;;;;;7347445;32;20774;-58
2024/01/30 15:44:01;;;;;;;5.65;2.10;;;11.10;99.90;;;;;;7338563;32;20445;-60
2024/01/30 15:48:04;;;;;;;6.70;2.40;;;11.00;99.90;;;;;;7339602;32;20218;-58
2024/01/30 15:52:06;;;;;;;3.60;1.80;;;11.00;99.90;;;;;;7341507;32;20615;-58
2024/01/30 15:56:08;;;;;;;5.30;2.10;;;10.90;99.90;;;;;;7338857;32;20265;-59
2024/01/30 16:00:12;;;;;;;6.25;1.90;;;10.80;99.90;;;;;;7344043;32;20181;-59
2024/01/30 16:04:15;;;;;;;3.45;1.65;;;10.80;99.90;;;;;;7344819;32;20293;-58
2024/01/30 16:08:17;;;;;;;3.05;1.50;;;10.70;99.90;;;;;;7334434;32;20212;-57
2024/01/30 16:12:19;;;;;;;6.03;1.40;;;10.70;99.90;;;;;;7341208;32;20151;-57
2024/01/30 16:16:21;;;;;;;3.25;1.12;;;10.60;99.90;;;;;;7346125;32;20579;-58
2024/01/30 16:20:23;;;;;;;4.28;1.10;;;10.50;99.90;;;;;;7344185;32;20557;-58
2024/01/30 16:24:25;;;;;;;2.20;0.95;;;10.40;99.90;;;;;;7339298;32;20199;-58
2024/01/30 16:28:27;;;;;;;2.60;1.00;;;10.40;99.90;;;;;;7347973;32;20194;-58
2024/01/30 16:32:31;;;;;;;2.37;0.90;;;10.30;99.90;;;;;;7344554;32;20120;-59
2024/01/30 16:36:33;;;;;;;4.95;1.00;;;10.30;99.90;;;;;;7340903;32;20096;-58
2024/01/30 16:40:34;;;;;;;1.70;0.70;;;10.10;99.90;;;;;;7348489;32;20216;-58
2024/01/30 16:44:36;;;;;;;3.58;0.90;;;10.00;99.90;;;;;;7343852;32;20108;-57
2024/01/30 16:48:38;;;;;;;5.43;0.93;;;9.80;99.90;;;;;;7350414;32;20107;-57
2024/01/30 16:52:40;;;;;;;3.33;1.08;;;9.70;99.90;;;;;;7347320;32;20312;-59
2024/01/30 16:56:47;;;;;;;3.30;1.00;;;9.50;99.90;;;;;;7347640;32;20240;-57
2024/01/30 17:00:49;;;;;;;2.37;0.68;;;9.40;99.90;;;;;;7347877;32;20137;-57
2024/01/30 17:04:51;;;;;;;3.45;0.73;;;9.40;99.90;;;;;;7344342;32;20325;-57
2024/01/30 17:08:53;;;;;;;2.47;0.55;;;9.50;99.90;;;;;;7345961;32;20140;-58
2024/01/30 17:12:55;;;;;;;1.02;0.47;;;9.50;99.90;;;;;;7338241;32;20114;-57
2024/01/30 17:16:57;;;;;;;2.15;0.50;;;9.50;99.90;;;;;;7341349;32;20126;-57
2024/01/30 17:21:09;;;;;;;1.75;0.73;;;9.50;99.90;;;;;;7346387;32;20543;-56
2024/01/30 17:25:10;;;;;;;2.10;0.57;;;9.60;99.90;;;;;;7342731;32;20998;-57
2024/01/30 17:29:15;;;;;;;3.72;0.75;;;9.60;99.90;;;;;;7348884;32;20225;-57
2024/01/30 17:33:16;;;;;;;2.10;0.70;;;9.70;99.90;;;;;;7342691;32;20203;-56
2024/01/30 17:37:18;;;;;;;2.35;0.80;;;9.60;99.90;;;;;;7349023;32;20159;-56
2024/01/30 17:41:20;;;;;;;3.50;1.05;;;9.70;99.90;;;;;;7338346;32;20318;-58
2024/01/30 17:45:22;;;;;;;3.42;1.20;;;9.70;99.90;;;;;;7348552;32;20130;-58
2024/01/30 17:49:26;;;;;;;4.22;1.23;;;9.60;99.90;;;;;;7339576;32;20191;-56
2024/01/30 17:53:28;;;;;;;6.25;1.80;;;9.40;99.90;;;;;;7342812;32;20673;-58
2024/01/30 17:57:30;;;;;;;5.03;1.70;;;9.40;99.90;;;;;;7342747;32;20234;-57
2024/01/30 18:01:33;;;;;;;5.82;1.80;;;9.30;99.90;;;;;;7347404;32;20127;-56
2024/01/30 18:05:35;;;;;;;4.90;1.60;;;9.30;99.90;;;;;;7329851;32;20107;-56
2024/01/30 18:09:37;;;;;;;4.25;1.87;;;9.20;99.90;;;;;;7346056;32;20178;-60
2024/01/30 18:13:39;;;;;;;3.58;1.58;;;9.10;99.90;;;;;;7342240;32;20099;-58
2024/01/30 18:17:41;;;;;;;3.95;1.60;;;9.10;99.90;;;;;;7336418;32;20260;-58
2024/01/30 18:21:43;;;;;;;2.85;1.50;;;9.00;99.90;;;;;;7334055;32;20299;-57
2024/01/30 18:25:45;;;;;;;3.47;1.52;;;9.00;99.90;;;;;;7343840;32;20573;-57
2024/01/30 18:29:47;;;;;;;4.15;1.67;;;8.90;99.90;;;;;;7338210;32;20234;-57
2024/01/30 18:33:54;;;;;;;4.05;1.60;;;8.90;99.90;;;;;;7337240;32;20649;-55
2024/01/30 18:37:56;;;;;;;2.97;1.60;;;8.90;99.90;;;;;;7343138;32;20139;-57
2024/01/30 18:41:58;;;;;;;5.87;1.60;;;8.90;99.90;;;;;;7339549;32;20198;-57
2024/01/30 18:46:00;;;;;;;3.97;1.60;;;8.80;99.90;;;;;;7345037;32;20118;-58
2024/01/30 18:50:01;;;;;;;4.22;1.70;;;8.80;99.90;;;;;;7347980;32;20445;-58
2024/01/30 18:54:03;;;;;;;3.17;1.60;;;8.80;99.90;;;;;;7345001;32;20600;-58
2024/01/30 18:58:06;;;;;;;6.97;1.83;;;8.80;99.90;;;;;;7347020;32;20122;-58
2024/01/30 19:02:08;;;;;;;7.70;1.77;;;8.80;99.90;;;;;;7347521;32;20228;-59
2024/01/30 19:06:12;;;;;;;4.55;2.20;;;8.70;99.90;;;;;;7345481;32;20099;-59
2024/01/30 19:10:14;;;;;;;5.03;2.15;;;8.70;99.90;;;;;;7340106;32;20130;-57
2024/01/30 19:14:19;;;;;;;3.83;2.20;;;8.70;99.90;;;;;;7343486;32;20253;-57
2024/01/30 19:18:22;;;;;;;6.03;2.50;;;8.70;99.90;;;;;;7340552;32;20146;-57
2024/01/30 19:22:23;;;;;;;7.12;2.42;;;8.60;99.90;;;;;;7341768;32;20438;-57
2024/01/30 19:26:25;;;;;;;6.62;2.35;;;8.60;99.90;;;;;;7337896;32;20868;-56
2024/01/30 19:30:28;;;;;;;5.07;2.05;;;8.60;99.90;;;;;;7346934;32;20562;-56
2024/01/30 19:34:30;;;;;;;5.45;2.35;;;8.70;99.90;;;;;;7346539;32;20096;-57
2024/01/30 19:38:32;;;;;;;3.83;1.85;;;8.70;99.90;;;;;;7343779;32;20174;-57
2024/01/30 19:42:34;;;;;;;6.37;2.28;;;8.60;99.90;;;;;;7340972;32;20123;-57
2024/01/30 19:46:37;;;;;;;4.70;2.47;;;8.50;99.90;;;;;;7339854;32;20520;-57
2024/01/30 19:50:46;;;;;;;3.20;1.70;;;8.50;99.90;;;;;;7332451;32;20745;-56
2024/01/30 19:54:48;;;;;;;4.70;1.98;;;8.50;99.90;;;;;;7340443;32;20376;-56
2024/01/30 19:58:50;;;;;;;5.45;1.92;;;8.50;99.90;;;;;;7338566;32;20214;-58
2024/01/30 20:02:52;;;;;;;4.40;1.75;;;8.50;99.90;;;;;;7345353;32;20206;-57
2024/01/30 20:06:57;;;;;;;5.68;2.92;;;8.40;99.90;;;;;;7340126;32;20821;-56
2024/01/30 20:10:59;;;;;;;6.20;2.20;;;8.50;99.90;;;;;;7344819;32;20122;-57
2024/01/30 20:15:03;;;;;;;4.12;2.37;;;8.40;99.90;;;;;;7346221;32;20813;-57
2024/01/30 20:19:05;;;;;;;5.90;3.33;;;8.40;99.90;;;;;;7347006;32;20128;-58
2024/01/30 20:23:08;;;;;;;7.43;3.28;;;8.40;99.90;;;;;;7343449;32;20318;-58
2024/01/30 20:27:10;;;;;;;5.20;3.35;;;8.40;99.90;;;;;;7346063;32;20180;-57
2024/01/30 20:31:12;;;;;;;7.53;4.03;;;8.40;99.90;;;;;;7342269;32;20183;-59
2024/01/30 20:35:14;;;;;;;6.80;3.87;;;8.30;99.90;;;;;;7346978;32;20108;-59
2024/01/30 20:39:16;;;;;;;6.57;4.82;;;8.30;99.90;;;;;;7345040;32;20875;-58
2024/01/30 20:43:18;;;;;;;6.43;4.32;;;8.30;99.90;;;;;;7350660;32;20198;-58
2024/01/30 20:47:20;;;;;;;6.75;3.83;;;8.20;99.90;;;;;;7347125;32;20568;-58
2024/01/30 20:51:21;;;;;;;5.57;3.55;;;8.10;99.90;;;;;;7350957;32;20314;-58
2024/01/30 20:55:23;;;;;;;6.85;3.70;;;8.20;99.90;;;;;;7349579;32;20365;-58
2024/01/30 20:59:25;;;;;;;8.30;5.60;;;8.10;99.90;;;;;;7342407;32;20110;-57
2024/01/30 21:03:28;;;;;;;10.23;5.50;;;8.20;99.90;;;;;;7347893;32;20141;-58
2024/01/30 21:07:30;;;;;;;9.40;5.53;;;8.10;99.90;;;;;;7347269;32;20237;-59